createdAt,value
2022-08-03T00:00:08.219Z,98216.38
2022-08-03T00:01:11.359Z,98221.50
2022-08-03T00:02:14.638Z,98219.88
2022-08-03T00:03:20.825Z,98218.50
2022-08-03T00:04:34.080Z,98225.59
2022-08-03T00:05:37.719Z,98219.72
2022-08-03T00:06:40.681Z,98220.56
2022-08-03T00:07:43.620Z,98222.31
2022-08-03T00:08:47.472Z,98231.03
2022-08-03T00:09:50.813Z,98226.88
2022-08-03T00:10:53.890Z,98223.88
2022-08-03T00:11:56.760Z,98230.03
2022-08-03T00:12:59.801Z,98228.09
2022-08-03T00:14:03.768Z,98225.87
2022-08-03T00:15:10.508Z,98227.59
2022-08-03T00:16:19.121Z,98234.56
2022-08-03T00:17:26.059Z,98228.06
2022-08-03T00:18:29.139Z,98226.34
2022-08-03T00:19:32.099Z,98233.09
2022-08-03T00:20:35.483Z,98227.03
2022-08-03T00:21:38.385Z,98227.84
2022-08-03T00:22:41.320Z,98235.72
2022-08-03T00:23:51.468Z,98237.59
2022-08-03T00:24:55.646Z,98221.69
2022-08-03T00:25:58.752Z,98234.66
2022-08-03T00:27:05.607Z,98235.91
2022-08-03T00:28:09.171Z,98236.12
2022-08-03T00:29:12.219Z,98232.75
2022-08-03T00:30:16.994Z,98234.22
2022-08-03T00:31:28.375Z,98238.31
2022-08-03T00:32:44.407Z,98237.66
2022-08-03T00:33:58.064Z,98237.50
2022-08-03T00:35:03.147Z,98246.81
2022-08-03T00:36:11.389Z,98245.31
2022-08-03T00:37:14.359Z,98237.50
2022-08-03T00:38:21.019Z,98241.59
2022-08-03T00:39:23.893Z,98246.28
2022-08-03T00:40:27.383Z,98248.91
2022-08-03T00:41:30.408Z,98244.34
2022-08-03T00:42:33.503Z,98245.94
2022-08-03T00:43:36.452Z,98243.34
2022-08-03T00:44:43.261Z,98242.06
2022-08-03T00:45:46.194Z,98241.06
2022-08-03T00:46:49.242Z,98245.56
2022-08-03T00:47:52.671Z,98239.41
2022-08-03T00:48:56.082Z,98238.47
2022-08-03T00:49:59.096Z,98245.38
2022-08-03T00:51:03.734Z,98231.22
2022-08-03T00:52:09.803Z,98236.16
2022-08-03T00:53:13.768Z,98244.97
2022-08-03T00:54:16.895Z,98234.50
2022-08-03T00:55:20.796Z,98244.97
2022-08-03T00:56:25.808Z,98239.59
2022-08-03T00:57:32.096Z,98239.19
2022-08-03T00:58:35.645Z,98230.53
2022-08-03T00:59:39.548Z,98232.41
2022-08-03T01:00:42.497Z,98246.16
2022-08-03T01:01:45.491Z,98238.53
2022-08-03T01:02:48.888Z,98233.44
2022-08-03T01:03:55.187Z,98232.66
2022-08-03T01:04:58.107Z,98232.31
2022-08-03T01:06:19.023Z,98235.69
2022-08-03T01:07:31.170Z,98237.19
2022-08-03T01:09:08.083Z,98237.03
2022-08-03T01:10:14.589Z,98239.00
2022-08-03T01:12:00.266Z,98241.88
2022-08-03T01:13:59.134Z,98238.41
2022-08-03T01:15:11.969Z,98246.44
2022-08-03T01:16:36.850Z,98239.84
2022-08-03T01:18:00.601Z,98233.31
2022-08-03T01:19:13.750Z,98240.13
2022-08-03T01:20:18.861Z,98243.09
2022-08-03T01:22:00.918Z,98240.28
2022-08-03T01:23:52.035Z,98237.06
2022-08-03T01:25:15.260Z,98237.94
2022-08-03T01:26:52.970Z,98237.06
2022-08-03T01:28:24.531Z,98239.59
2022-08-03T01:29:53.240Z,98238.66
2022-08-03T01:31:02.848Z,98237.12
2022-08-03T01:33:02.412Z,98243.97
2022-08-03T01:33:41.292Z,98231.22
2022-08-03T01:34:52.360Z,98240.53
2022-08-03T01:36:05.912Z,98236.16
2022-08-03T01:37:17.327Z,98240.53
2022-08-03T01:38:34.751Z,98236.81
2022-08-03T01:39:42.568Z,98238.81
2022-08-03T01:40:48.398Z,98236.66
2022-08-03T01:42:00.244Z,98242.38
2022-08-03T01:43:07.082Z,98241.50
2022-08-03T01:44:29.321Z,98236.16
2022-08-03T01:45:37.467Z,98238.56
2022-08-03T01:46:49.480Z,98243.00
2022-08-03T01:47:54.812Z,98240.78
2022-08-03T01:49:00.530Z,98236.50
2022-08-03T01:50:14.637Z,98233.78
2022-08-03T01:51:23.043Z,98233.88
2022-08-03T01:52:28.339Z,98229.09
2022-08-03T01:53:34.551Z,98229.16
2022-08-03T01:54:44.281Z,98233.06
2022-08-03T01:55:52.998Z,98232.56
2022-08-03T01:57:00.640Z,98233.78
2022-08-03T01:58:06.948Z,98230.13
2022-08-03T01:59:12.443Z,98232.91
2022-08-03T02:00:19.585Z,98236.44
2022-08-03T02:01:26.178Z,98236.06
2022-08-03T02:02:51.353Z,98234.53
2022-08-03T02:04:00.714Z,98233.06
2022-08-03T02:05:10.660Z,98237.09
2022-08-03T02:07:02.634Z,98239.56
2022-08-03T02:07:43.149Z,98235.47
2022-08-03T02:08:50.142Z,98229.78
2022-08-03T02:09:56.365Z,98234.09
2022-08-03T02:11:03.016Z,98234.19
2022-08-03T02:12:11.873Z,98229.88
2022-08-03T02:13:17.694Z,98241.25
2022-08-03T02:14:23.247Z,98242.69
2022-08-03T02:15:28.929Z,98239.87
2022-08-03T02:16:35.480Z,98240.06
2022-08-03T02:17:41.986Z,98239.97
2022-08-03T02:18:48.621Z,98246.78
2022-08-03T02:19:54.337Z,98243.13
2022-08-03T02:21:01.945Z,98241.50
2022-08-03T02:22:16.414Z,98241.56
2022-08-03T02:23:20.597Z,98238.31
2022-08-03T02:24:24.552Z,98237.44
2022-08-03T02:25:29.466Z,98246.09
2022-08-03T02:26:37.991Z,98240.16
2022-08-03T02:27:53.277Z,98246.34
2022-08-03T02:29:00.026Z,98236.44
2022-08-03T02:30:11.450Z,98236.56
2022-08-03T02:31:20.051Z,98241.16
2022-08-03T02:32:36.614Z,98237.91
2022-08-03T02:33:44.745Z,98250.09
2022-08-03T02:34:52.362Z,98244.50
2022-08-03T02:35:58.322Z,98240.16
2022-08-03T02:37:08.008Z,98243.75
2022-08-03T02:38:21.147Z,98235.81
2022-08-03T02:39:27.739Z,98243.41
2022-08-03T02:40:33.721Z,98241.03
2022-08-03T02:41:50.912Z,98244.03
2022-08-03T02:42:58.630Z,98242.84
2022-08-03T02:44:08.073Z,98238.78
2022-08-03T02:45:14.443Z,98243.41
2022-08-03T02:46:23.354Z,98239.22
2022-08-03T02:47:54.279Z,98236.81
2022-08-03T02:48:56.350Z,98235.19
2022-08-03T02:50:02.242Z,98237.62
2022-08-03T02:51:06.731Z,98242.00
2022-08-03T02:52:15.841Z,98239.38
2022-08-03T02:53:23.028Z,98245.47
2022-08-03T02:54:28.384Z,98245.22
2022-08-03T02:55:36.463Z,98242.44
2022-08-03T02:56:49.444Z,98249.91
2022-08-03T02:57:55.428Z,98244.34
2022-08-03T02:59:01.473Z,98245.06
2022-08-03T03:00:08.508Z,98242.50
2022-08-03T03:01:14.080Z,98246.16
2022-08-03T03:02:20.633Z,98243.97
2022-08-03T03:03:25.843Z,98248.34
2022-08-03T03:04:33.601Z,98243.16
2022-08-03T03:05:55.894Z,98242.06
2022-08-03T03:07:04.582Z,98239.84
2022-08-03T03:08:18.029Z,98235.81
2022-08-03T03:09:24.112Z,98237.94
2022-08-03T03:10:33.229Z,98238.00
2022-08-03T03:11:41.142Z,98239.28
2022-08-03T03:12:47.155Z,98238.41
2022-08-03T03:13:51.776Z,98236.16
2022-08-03T03:14:55.054Z,98246.63
2022-08-03T03:16:01.795Z,98241.81
2022-08-03T03:17:07.455Z,98240.72
2022-08-03T03:18:11.684Z,98236.75
2022-08-03T03:19:17.582Z,98241.72
2022-08-03T03:20:30.286Z,98241.84
2022-08-03T03:21:35.790Z,98241.72
2022-08-03T03:22:40.539Z,98246.44
2022-08-03T03:23:49.181Z,98239.59
2022-08-03T03:24:53.734Z,98240.31
2022-08-03T03:25:58.794Z,98241.13
2022-08-03T03:27:03.126Z,98245.97
2022-08-03T03:28:06.628Z,98236.50
2022-08-03T03:29:10.280Z,98242.53
2022-08-03T03:30:13.860Z,98243.25
2022-08-03T03:32:34.169Z,98240.53
2022-08-03T03:33:38.849Z,98243.00
2022-08-03T03:34:42.762Z,98245.47
2022-08-03T03:35:47.568Z,98241.09
2022-08-03T03:36:50.804Z,98240.53
2022-08-03T03:37:53.513Z,98247.53
2022-08-03T03:38:58.734Z,98235.28
2022-08-03T03:40:19.598Z,98239.31
2022-08-03T03:41:22.592Z,98242.69
2022-08-03T03:42:26.350Z,98241.50
2022-08-03T03:43:29.857Z,98236.44
2022-08-03T03:44:32.588Z,98241.41
2022-08-03T03:45:36.212Z,98242.44
2022-08-03T03:46:40.064Z,98238.59
2022-08-03T03:47:42.902Z,98241.31
2022-08-03T03:48:46.450Z,98242.09
2022-08-03T03:49:49.265Z,98242.03
2022-08-03T03:50:55.134Z,98241.31
2022-08-03T03:51:57.832Z,98237.44
2022-08-03T03:53:00.692Z,98240.44
2022-08-03T03:54:07.089Z,98240.06
2022-08-03T03:55:10.001Z,98244.31
2022-08-03T03:56:12.762Z,98240.97
2022-08-03T03:57:15.434Z,98244.38
2022-08-03T03:58:18.874Z,98238.59
2022-08-03T03:59:21.758Z,98247.59
2022-08-03T04:00:24.445Z,98247.75
2022-08-03T04:01:27.581Z,98245.91
2022-08-03T04:02:30.470Z,98244.06
2022-08-03T04:03:33.219Z,98244.72
2022-08-03T04:04:55.106Z,98250.50
2022-08-03T04:06:16.348Z,98248.91
2022-08-03T04:07:39.397Z,98250.34
2022-08-03T04:09:21.448Z,98250.34
2022-08-03T04:10:47.781Z,98255.84
2022-08-03T04:11:54.281Z,98253.78
2022-08-03T04:13:00.868Z,98257.34
2022-08-03T04:14:08.345Z,98250.66
2022-08-03T04:15:13.431Z,98256.94
2022-08-03T04:16:19.866Z,98259.06
2022-08-03T04:17:27.213Z,98257.44
2022-08-03T04:18:34.704Z,98258.69
2022-08-03T04:19:38.522Z,98267.91
2022-08-03T04:20:47.809Z,98266.94
2022-08-03T04:21:53.033Z,98262.56
2022-08-03T04:23:00.870Z,98267.38
2022-08-03T04:24:06.284Z,98271.63
2022-08-03T04:25:17.060Z,98266.94
2022-08-03T04:26:22.771Z,98278.91
2022-08-03T04:27:31.418Z,98270.78
2022-08-03T04:28:35.160Z,98270.22
2022-08-03T04:29:44.785Z,98275.12
2022-08-03T04:30:56.705Z,98275.00
2022-08-03T04:32:00.946Z,98269.72
2022-08-03T04:33:07.259Z,98274.59
2022-08-03T04:34:11.212Z,98276.72
2022-08-03T04:35:14.208Z,98283.63
2022-08-03T04:36:22.630Z,98281.09
2022-08-03T04:37:25.711Z,98279.66
2022-08-03T04:38:36.024Z,98292.06
2022-08-03T04:39:39.731Z,98274.69
2022-08-03T04:40:45.857Z,98285.53
2022-08-03T04:42:07.188Z,98282.16
2022-08-03T04:43:15.037Z,98280.50
2022-08-03T04:44:22.062Z,98284.59
2022-08-03T04:45:32.986Z,98284.53
2022-08-03T04:46:39.280Z,98281.09
2022-08-03T04:47:50.745Z,98283.75
2022-08-03T04:48:57.896Z,98286.06
2022-08-03T04:50:09.132Z,98291.84
2022-08-03T04:51:15.338Z,98285.87
2022-08-03T04:52:21.608Z,98298.03
2022-08-03T04:53:24.385Z,98296.34
2022-08-03T04:54:27.251Z,98293.69
2022-08-03T04:55:32.438Z,98298.16
2022-08-03T04:56:38.598Z,98294.34
2022-08-03T04:57:42.047Z,98295.28
2022-08-03T04:58:44.994Z,98297.03
2022-08-03T04:59:49.595Z,98300.81
2022-08-03T05:00:52.310Z,98303.13
2022-08-03T05:01:55.028Z,98300.56
2022-08-03T05:03:00.116Z,98302.94
2022-08-03T05:04:02.979Z,98305.22
2022-08-03T05:05:06.079Z,98302.50
2022-08-03T05:06:11.396Z,98305.44
2022-08-03T05:07:15.394Z,98304.16
2022-08-03T05:08:20.753Z,98309.31
2022-08-03T05:09:52.652Z,98314.78
2022-08-03T05:10:59.051Z,98316.94
2022-08-03T05:12:02.334Z,98313.72
2022-08-03T05:13:04.992Z,98313.84
2022-08-03T05:14:07.708Z,98312.41
2022-08-03T05:15:10.803Z,98326.50
2022-08-03T05:16:14.191Z,98313.34
2022-08-03T05:17:17.233Z,98312.75
2022-08-03T05:18:20.335Z,98315.63
2022-08-03T05:19:23.119Z,98315.94
2022-08-03T05:20:25.803Z,98311.69
2022-08-03T05:21:51.885Z,98312.16
2022-08-03T05:22:51.442Z,98318.66
2022-08-03T05:23:54.253Z,98315.59
2022-08-03T05:24:56.981Z,98313.84
2022-08-03T05:25:59.763Z,98320.81
2022-08-03T05:27:03.447Z,98320.81
2022-08-03T05:28:06.320Z,98316.78
2022-08-03T05:29:12.740Z,98316.84
2022-08-03T05:30:30.450Z,98325.75
2022-08-03T05:31:37.018Z,98326.00
2022-08-03T05:32:39.576Z,98323.50
2022-08-03T05:33:45.223Z,98322.22
2022-08-03T05:34:47.945Z,98325.91
2022-08-03T05:36:03.518Z,98324.06
2022-08-03T05:37:07.564Z,98326.75
2022-08-03T05:38:10.930Z,98327.50
2022-08-03T05:39:14.658Z,98326.59
2022-08-03T05:40:17.420Z,98327.13
2022-08-03T05:41:36.972Z,98332.75
2022-08-03T05:42:40.225Z,98323.34
2022-08-03T05:43:43.169Z,98324.28
2022-08-03T05:44:45.803Z,98330.56
2022-08-03T05:45:48.880Z,98327.25
2022-08-03T05:47:11.785Z,98332.28
2022-08-03T05:48:14.665Z,98334.00
2022-08-03T05:49:21.720Z,98333.94
2022-08-03T05:50:24.494Z,98337.09
2022-08-03T05:51:31.624Z,98333.47
2022-08-03T05:52:34.318Z,98332.78
2022-08-03T05:53:37.936Z,98335.59
2022-08-03T05:54:55.932Z,98333.84
2022-08-03T05:56:03.449Z,98342.62
2022-08-03T05:57:19.337Z,98337.19
2022-08-03T05:58:24.462Z,98335.94
2022-08-03T05:59:38.512Z,98341.88
2022-08-03T06:00:41.688Z,98336.97
2022-08-03T06:01:44.405Z,98335.50
2022-08-03T06:02:50.756Z,98336.47
2022-08-03T06:03:53.911Z,98342.59
2022-08-03T06:04:56.643Z,98339.06
2022-08-03T06:06:00.456Z,98349.78
2022-08-03T06:07:03.680Z,98345.94
2022-08-03T06:08:06.785Z,98347.28
2022-08-03T06:09:13.675Z,98343.59
2022-08-03T06:10:36.560Z,98343.06
2022-08-03T06:11:40.551Z,98353.69
2022-08-03T06:12:43.273Z,98345.84
2022-08-03T06:13:45.929Z,98347.97
2022-08-03T06:14:48.632Z,98352.34
2022-08-03T06:15:51.473Z,98354.53
2022-08-03T06:16:54.361Z,98353.78
2022-08-03T06:18:01.714Z,98359.84
2022-08-03T06:19:04.905Z,98355.72
2022-08-03T06:20:07.978Z,98343.41
2022-08-03T06:21:14.677Z,98352.75
2022-08-03T06:22:18.753Z,98353.31
2022-08-03T06:23:21.556Z,98354.63
2022-08-03T06:24:25.107Z,98355.94
2022-08-03T06:25:27.959Z,98354.13
2022-08-03T06:26:30.685Z,98351.59
2022-08-03T06:27:36.543Z,98347.78
2022-08-03T06:28:52.758Z,98350.38
2022-08-03T06:29:56.498Z,98352.56
2022-08-03T06:30:59.131Z,98350.50
2022-08-03T06:32:01.925Z,98360.69
2022-08-03T06:33:04.550Z,98359.03
2022-08-03T06:34:33.865Z,98362.31
2022-08-03T06:35:34.274Z,98350.38
2022-08-03T06:36:38.857Z,98360.84
2022-08-03T06:37:49.547Z,98359.16
2022-08-03T06:38:52.889Z,98358.69
2022-08-03T06:39:55.775Z,98359.50
2022-08-03T06:40:58.663Z,98362.53
2022-08-03T06:42:01.388Z,98355.50
2022-08-03T06:43:04.301Z,98359.72
2022-08-03T06:44:07.054Z,98370.34
2022-08-03T06:45:10.110Z,98368.34
2022-08-03T06:46:12.872Z,98363.91
2022-08-03T06:47:16.054Z,98368.19
2022-08-03T06:48:18.929Z,98373.94
2022-08-03T06:49:21.725Z,98364.38
2022-08-03T06:50:26.297Z,98364.19
2022-08-03T06:52:05.546Z,98367.22
2022-08-03T06:52:52.389Z,98366.50
2022-08-03T06:53:55.037Z,98366.06
2022-08-03T06:54:58.212Z,98376.69
2022-08-03T06:56:00.933Z,98366.78
2022-08-03T06:57:04.061Z,98366.03
2022-08-03T06:58:07.162Z,98371.72
2022-08-03T06:59:09.821Z,98371.88
2022-08-03T07:00:32.675Z,98371.84
2022-08-03T07:01:35.362Z,98377.06
2022-08-03T07:02:38.968Z,98381.31
2022-08-03T07:03:52.319Z,98376.87
2022-08-03T07:04:55.901Z,98374.62
2022-08-03T07:05:58.697Z,98381.06
2022-08-03T07:07:01.931Z,98379.75
2022-08-03T07:08:05.250Z,98370.06
2022-08-03T07:09:07.950Z,98379.22
2022-08-03T07:10:11.900Z,98375.66
2022-08-03T07:11:14.812Z,98378.00
2022-08-03T07:12:17.675Z,98379.97
2022-08-03T07:13:20.590Z,98379.69
2022-08-03T07:14:24.453Z,98376.13
2022-08-03T07:15:55.212Z,98369.44
2022-08-03T07:16:50.574Z,98380.19
2022-08-03T07:17:53.548Z,98374.28
2022-08-03T07:18:56.503Z,98388.69
2022-08-03T07:20:00.025Z,98374.09
2022-08-03T07:21:02.854Z,98386.03
2022-08-03T07:22:05.569Z,98384.09
2022-08-03T07:23:08.303Z,98388.94
2022-08-03T07:24:11.009Z,98383.75
2022-08-03T07:25:13.854Z,98389.12
2022-08-03T07:26:16.573Z,98383.13
2022-08-03T07:27:19.413Z,98387.19
2022-08-03T07:28:23.609Z,98381.09
2022-08-03T07:29:26.335Z,98386.00
2022-08-03T07:30:28.985Z,98383.25
2022-08-03T07:31:34.425Z,98383.06
2022-08-03T07:32:37.498Z,98383.03
2022-08-03T07:33:53.922Z,98379.44
2022-08-03T07:35:00.593Z,98385.78
2022-08-03T07:36:04.191Z,98385.56
2022-08-03T07:37:06.882Z,98383.97
2022-08-03T07:38:09.787Z,98381.66
2022-08-03T07:39:15.783Z,98390.19
2022-08-03T07:40:20.823Z,98388.44
2022-08-03T07:41:23.651Z,98385.59
2022-08-03T07:42:27.845Z,98387.34
2022-08-03T07:43:30.659Z,98389.28
2022-08-03T07:44:33.363Z,98388.62
2022-08-03T07:45:36.141Z,98390.63
2022-08-03T07:46:38.889Z,98377.69
2022-08-03T07:47:42.153Z,98381.38
2022-08-03T07:48:56.318Z,98382.22
2022-08-03T07:49:59.162Z,98383.50
2022-08-03T07:51:03.688Z,98381.25
2022-08-03T07:52:25.149Z,98381.28
2022-08-03T07:53:31.320Z,98372.47
2022-08-03T07:54:34.198Z,98380.78
2022-08-03T07:55:36.845Z,98387.28
2022-08-03T07:56:39.513Z,98377.28
2022-08-03T07:57:42.470Z,98373.53
2022-08-03T07:58:47.522Z,98382.16
2022-08-03T08:00:01.717Z,98387.50
2022-08-03T08:01:05.686Z,98384.87
2022-08-03T08:02:08.455Z,98381.84
2022-08-03T08:03:15.681Z,98381.28
2022-08-03T08:04:18.275Z,98380.28
2022-08-03T08:05:21.111Z,98384.94
2022-08-03T08:06:23.917Z,98381.03
2022-08-03T08:07:26.669Z,98378.66
2022-08-03T08:08:29.968Z,98372.59
2022-08-03T08:09:33.254Z,98380.63
2022-08-03T08:10:36.930Z,98379.13
2022-08-03T08:11:40.051Z,98376.00
2022-08-03T08:12:42.923Z,98378.53
2022-08-03T08:13:48.671Z,98380.81
2022-08-03T08:14:51.530Z,98379.06
2022-08-03T08:15:54.335Z,98377.69
2022-08-03T08:16:57.099Z,98381.72
2022-08-03T08:18:01.620Z,98375.94
2022-08-03T08:19:05.242Z,98378.13
2022-08-03T08:20:08.737Z,98385.97
2022-08-03T08:21:11.690Z,98384.91
2022-08-03T08:22:15.389Z,98383.75
2022-08-03T08:23:41.677Z,98388.19
2022-08-03T08:24:48.684Z,98376.34
2022-08-03T08:25:54.495Z,98383.81
2022-08-03T08:26:57.221Z,98375.09
2022-08-03T08:28:31.373Z,98393.19
2022-08-03T08:29:27.740Z,98379.53
2022-08-03T08:30:33.026Z,98383.53
2022-08-03T08:31:35.673Z,98389.09
2022-08-03T08:32:38.638Z,98377.25
2022-08-03T08:34:03.715Z,98380.78
2022-08-03T08:35:06.432Z,98382.16
2022-08-03T08:36:14.849Z,98383.56
2022-08-03T08:37:18.438Z,98387.00
2022-08-03T08:38:23.464Z,98381.22
2022-08-03T08:39:26.164Z,98378.78
2022-08-03T08:40:35.786Z,98377.03
2022-08-03T08:41:38.709Z,98379.97
2022-08-03T08:42:58.283Z,98382.84
2022-08-03T08:44:02.890Z,98380.06
2022-08-03T08:45:07.323Z,98374.59
2022-08-03T08:46:23.435Z,98376.78
2022-08-03T08:47:32.165Z,98380.09
2022-08-03T08:48:54.835Z,98381.03
2022-08-03T08:50:09.904Z,98383.19
2022-08-03T08:51:14.561Z,98376.03
2022-08-03T08:52:24.943Z,98375.41
2022-08-03T08:53:30.408Z,98376.22
2022-08-03T08:54:33.581Z,98376.03
2022-08-03T08:55:56.597Z,98375.44
2022-08-03T08:57:09.112Z,98376.56
2022-08-03T08:58:23.202Z,98382.34
2022-08-03T08:59:48.257Z,98380.16
2022-08-03T09:00:51.907Z,98377.72
2022-08-03T09:01:58.872Z,98375.44
2022-08-03T09:03:02.201Z,98383.44
2022-08-03T09:04:09.625Z,98377.75
2022-08-03T09:05:18.363Z,98372.94
2022-08-03T09:06:22.817Z,98372.97
2022-08-03T09:07:25.527Z,98368.75
2022-08-03T09:08:31.284Z,98373.00
2022-08-03T09:10:11.012Z,98366.59
2022-08-03T09:10:56.818Z,98375.75
2022-08-03T09:12:20.928Z,98366.62
2022-08-03T09:13:23.248Z,98366.62
2022-08-03T09:14:34.189Z,98373.72
2022-08-03T09:16:00.582Z,98365.22
2022-08-03T09:17:04.763Z,98370.84
2022-08-03T09:18:09.703Z,98369.44
2022-08-03T09:19:14.968Z,98363.75
2022-08-03T09:20:18.575Z,98357.44
2022-08-03T09:21:32.173Z,98365.09
2022-08-03T09:22:35.567Z,98358.75
2022-08-03T09:24:01.962Z,98355.91
2022-08-03T09:25:24.199Z,98370.13
2022-08-03T09:26:32.759Z,98365.13
2022-08-03T09:27:45.816Z,98357.44
2022-08-03T09:29:15.572Z,98360.28
2022-08-03T09:30:34.267Z,98360.97
2022-08-03T09:31:45.920Z,98360.97
2022-08-03T09:32:49.012Z,98349.66
2022-08-03T09:34:01.169Z,98360.94
2022-08-03T09:35:04.781Z,98363.13
2022-08-03T09:36:07.505Z,98359.53
2022-08-03T09:37:18.875Z,98352.38
2022-08-03T09:38:32.145Z,98360.88
2022-08-03T09:39:41.941Z,98360.19
2022-08-03T09:40:46.244Z,98355.06
2022-08-03T09:42:06.313Z,98353.53
2022-08-03T09:43:09.986Z,98359.06
2022-08-03T09:44:25.334Z,98358.50
2022-08-03T09:45:30.218Z,98357.28
2022-08-03T09:46:50.155Z,98353.84
2022-08-03T09:48:00.084Z,98348.06
2022-08-03T09:49:12.925Z,98357.34
2022-08-03T09:50:15.890Z,98353.84
2022-08-03T09:51:33.117Z,98359.50
2022-08-03T09:52:52.662Z,98349.63
2022-08-03T09:54:01.930Z,98356.72
2022-08-03T09:56:32.916Z,98353.81
2022-08-03T09:56:54.149Z,98355.16
2022-08-03T09:58:08.604Z,98343.53
2022-08-03T09:59:12.896Z,98349.97
2022-08-03T10:00:17.547Z,98337.97
2022-08-03T10:01:25.492Z,98343.44
2022-08-03T10:02:28.423Z,98340.88
2022-08-03T10:04:02.811Z,98346.72
2022-08-03T10:05:00.571Z,98347.41
2022-08-03T10:06:20.227Z,98343.22
2022-08-03T10:07:24.581Z,98333.34
2022-08-03T10:08:33.824Z,98341.78
2022-08-03T10:09:37.684Z,98338.28
2022-08-03T10:10:47.899Z,98337.59
2022-08-03T10:11:50.822Z,98339.56
2022-08-03T10:12:53.650Z,98331.69
2022-08-03T10:13:57.987Z,98328.31
2022-08-03T10:15:05.746Z,98330.41
2022-08-03T10:16:23.005Z,98337.28
2022-08-03T10:17:27.959Z,98329.34
2022-08-03T10:18:33.181Z,98340.13
2022-08-03T10:19:35.916Z,98328.88
2022-08-03T10:20:46.132Z,98332.37
2022-08-03T10:21:55.398Z,98332.28
2022-08-03T10:23:00.059Z,98326.00
2022-08-03T10:24:06.243Z,98333.75
2022-08-03T10:25:13.625Z,98323.13
2022-08-03T10:26:22.690Z,98331.06
2022-08-03T10:27:35.275Z,98326.88
2022-08-03T10:28:45.233Z,98328.09
2022-08-03T10:29:53.734Z,98325.53
2022-08-03T10:30:56.794Z,98334.06
2022-08-03T10:32:01.557Z,98323.41
2022-08-03T10:33:49.891Z,98322.94
2022-08-03T10:34:44.624Z,98323.78
2022-08-03T10:35:52.897Z,98322.31
2022-08-03T10:37:00.303Z,98317.53
2022-08-03T10:38:17.189Z,98317.78
2022-08-03T10:39:23.007Z,98321.38
2022-08-03T10:41:55.479Z,98316.87
2022-08-03T10:43:06.135Z,98315.41
2022-08-03T10:44:24.612Z,98309.22
2022-08-03T10:45:28.459Z,98312.75
2022-08-03T10:46:34.092Z,98319.81
2022-08-03T10:47:37.682Z,98315.38
2022-08-03T10:48:40.888Z,98309.66
2022-08-03T10:49:44.076Z,98310.44
2022-08-03T10:50:50.061Z,98299.94
2022-08-03T10:51:54.262Z,98309.25
2022-08-03T10:53:04.053Z,98300.72
2022-08-03T10:54:06.974Z,98307.81
2022-08-03T10:56:08.693Z,98302.88
2022-08-03T10:57:48.758Z,98297.06
2022-08-03T10:58:57.941Z,98298.50
2022-08-03T11:00:04.956Z,98298.28
2022-08-03T11:01:15.781Z,98298.16
2022-08-03T11:02:21.849Z,98289.13
2022-08-03T11:03:24.539Z,98294.97
2022-08-03T11:04:27.375Z,98295.09
2022-08-03T11:05:31.999Z,98295.88
2022-08-03T11:06:37.476Z,98290.25
2022-08-03T11:07:44.746Z,98287.47
2022-08-03T11:09:12.641Z,98292.41
2022-08-03T11:10:32.098Z,98288.06
2022-08-03T11:11:34.879Z,98285.91
2022-08-03T11:12:37.845Z,98286.56
2022-08-03T11:13:58.300Z,98286.44
2022-08-03T11:15:04.770Z,98284.31
2022-08-03T11:16:22.335Z,98275.19
2022-08-03T11:17:25.413Z,98281.53
2022-08-03T11:18:28.787Z,98278.53
2022-08-03T11:19:58.000Z,98283.38
2022-08-03T11:21:01.188Z,98276.41
2022-08-03T11:22:03.988Z,98280.22
2022-08-03T11:23:07.709Z,98279.37
2022-08-03T11:24:41.329Z,98275.75
2022-08-03T11:26:13.126Z,98277.91
2022-08-03T11:27:16.076Z,98273.16
2022-08-03T11:28:28.844Z,98278.25
2022-08-03T11:29:32.058Z,98276.06
2022-08-03T11:30:34.924Z,98272.59
2022-08-03T11:31:49.886Z,98269.06
2022-08-03T11:32:57.784Z,98266.13
2022-08-03T11:34:07.893Z,98275.44
2022-08-03T11:35:15.129Z,98269.69
2022-08-03T11:36:32.591Z,98271.87
2022-08-03T11:37:36.531Z,98266.97
2022-08-03T11:39:17.099Z,98261.91
2022-08-03T11:40:45.348Z,98263.25
2022-08-03T11:41:48.194Z,98266.41
2022-08-03T11:42:50.977Z,98262.09
2022-08-03T11:43:54.043Z,98259.25
2022-08-03T11:45:06.169Z,98264.38
2022-08-03T11:46:29.965Z,98266.47
2022-08-03T11:47:37.542Z,98265.41
2022-08-03T11:48:59.559Z,98258.28
2022-08-03T11:50:02.441Z,98255.59
2022-08-03T11:51:09.766Z,98249.91
2022-08-03T11:52:12.995Z,98252.22
2022-08-03T11:53:18.523Z,98259.38
2022-08-03T11:54:22.908Z,98257.59
2022-08-03T11:55:30.487Z,98257.78
2022-08-03T11:56:50.656Z,98252.72
2022-08-03T11:59:11.019Z,98257.56
2022-08-03T11:59:32.889Z,98256.28
2022-08-03T12:00:35.627Z,98257.47
2022-08-03T12:01:41.697Z,98259.50
2022-08-03T12:02:58.232Z,98258.97
2022-08-03T12:04:04.924Z,98254.06
2022-08-03T12:05:08.048Z,98258.28
2022-08-03T12:06:12.591Z,98260.34
2022-08-03T12:08:02.407Z,98254.22
2022-08-03T12:08:41.952Z,98253.56
2022-08-03T12:10:05.162Z,98242.19
2022-08-03T12:11:12.020Z,98250.66
2022-08-03T12:12:17.096Z,98249.22
2022-08-03T12:14:45.351Z,98249.25
2022-08-03T12:14:51.064Z,98257.06
2022-08-03T12:15:59.414Z,98255.66
2022-08-03T12:17:02.252Z,98252.84
2022-08-03T12:18:14.503Z,98253.56
2022-08-03T12:19:17.184Z,98253.56
2022-08-03T12:20:34.583Z,98254.97
2022-08-03T12:21:55.818Z,98250.69
2022-08-03T12:23:07.465Z,98256.37
2022-08-03T12:24:10.133Z,98254.25
2022-08-03T12:25:38.527Z,98241.53
2022-08-03T12:26:58.926Z,98248.63
2022-08-03T12:28:36.562Z,98243.66
2022-08-03T12:29:39.853Z,98243.66
2022-08-03T12:30:43.914Z,98250.03
2022-08-03T12:31:47.233Z,98240.13
2022-08-03T12:32:50.140Z,98248.59
2022-08-03T12:34:03.147Z,98237.97
2022-08-03T12:35:06.600Z,98247.87
2022-08-03T12:36:10.621Z,98242.25
2022-08-03T12:37:22.518Z,98241.53
2022-08-03T12:38:29.641Z,98239.41
2022-08-03T12:39:33.527Z,98236.59
2022-08-03T12:40:36.347Z,98240.84
2022-08-03T12:41:41.025Z,98230.22
2022-08-03T12:42:43.643Z,98235.16
2022-08-03T12:43:50.178Z,98235.88
2022-08-03T12:44:56.294Z,98241.56
2022-08-03T12:46:16.645Z,98238.72
2022-08-03T12:47:19.645Z,98232.34
2022-08-03T12:48:23.509Z,98233.06
2022-08-03T12:49:54.279Z,98223.88
2022-08-03T12:51:11.538Z,98231.66
2022-08-03T12:52:14.411Z,98235.88
2022-08-03T12:53:29.125Z,98229.44
2022-08-03T12:54:32.777Z,98229.28
2022-08-03T12:55:40.199Z,98232.00
2022-08-03T12:57:06.164Z,98228.41
2022-08-03T12:58:14.670Z,98224.91
2022-08-03T12:59:34.772Z,98229.25
2022-08-03T13:00:38.495Z,98226.97
2022-08-03T13:01:54.898Z,98227.13
2022-08-03T13:03:39.270Z,98228.53
2022-08-03T13:04:28.218Z,98225.50
2022-08-03T13:05:32.547Z,98220.31
2022-08-03T13:06:38.832Z,98224.31
2022-08-03T13:07:46.221Z,98216.69
2022-08-03T13:08:49.747Z,98219.09
2022-08-03T13:09:56.407Z,98217.94
2022-08-03T13:10:59.085Z,98215.03
2022-08-03T13:12:21.539Z,98210.97
2022-08-03T13:13:39.907Z,98207.84
2022-08-03T13:14:44.773Z,98207.19
2022-08-03T13:15:47.592Z,98205.81
2022-08-03T13:16:51.179Z,98205.50
2022-08-03T13:18:03.844Z,98203.84
2022-08-03T13:19:15.627Z,98215.00
2022-08-03T13:20:19.144Z,98207.69
2022-08-03T13:21:22.013Z,98194.41
2022-08-03T13:22:29.223Z,98204.31
2022-08-03T13:23:32.159Z,98200.72
2022-08-03T13:24:34.854Z,98190.88
2022-08-03T13:25:37.567Z,98192.13